createdAt,value
2019-05-22T00:01:44.048Z,97.15
2019-05-22T00:04:15.519Z,99.95
2019-05-22T00:06:52.169Z,136.72
2019-05-22T00:09:31.036Z,111.60
2019-05-22T00:12:03.741Z,144.05
2019-05-22T00:14:38.126Z,124.20
2019-05-22T00:17:27.875Z,134.67
2019-05-22T00:20:08.525Z,166.53
2019-05-22T00:22:45.090Z,101.97
2019-05-22T00:25:16.267Z,111.25
2019-05-22T00:27:48.390Z,135.82
2019-05-22T00:30:29.076Z,109.92
2019-05-22T00:33:01.927Z,176.78
2019-05-22T00:35:40.562Z,103.62
2019-05-22T00:38:16.597Z,118.82
2019-05-22T00:40:47.769Z,145.47
2019-05-22T00:43:21.423Z,100.25
2019-05-22T00:45:55.699Z,184.97
2019-05-22T00:48:41.389Z,110.22
2019-05-22T00:51:30.524Z,116.85
2019-05-22T00:54:19.605Z,140.97
2019-05-22T00:56:53.062Z,150.82
2019-05-22T00:59:29.536Z,107.85
2019-05-22T01:02:22.407Z,169.50
2019-05-22T01:04:52.052Z,185.48
2019-05-22T01:07:28.907Z,103.42
2019-05-22T01:09:59.600Z,147.68
2019-05-22T01:12:38.864Z,100.90
2019-05-22T01:15:21.435Z,108.15
2019-05-22T01:18:09.795Z,166.22
2019-05-22T01:20:41.266Z,105.40
2019-05-22T01:23:16.780Z,111.00
2019-05-22T01:26:00.006Z,135.72
2019-05-22T01:31:33.061Z,101.78
2019-05-22T01:34:08.062Z,136.43
2019-05-22T01:36:41.596Z,102.87
2019-05-22T01:39:15.285Z,116.08
2019-05-22T01:41:46.607Z,137.12
2019-05-22T01:44:17.970Z,92.42
2019-05-22T01:46:48.152Z,135.00
2019-05-22T01:49:18.565Z,110.45
2019-05-22T01:51:47.885Z,165.88
2019-05-22T01:54:18.646Z,117.13
2019-05-22T01:56:48.828Z,152.27
2019-05-22T01:59:19.427Z,90.77
2019-05-22T02:01:48.602Z,151.93
2019-05-22T02:04:19.080Z,85.83
2019-05-22T02:06:48.342Z,149.23
2019-05-22T02:09:24.596Z,90.40
2019-05-22T02:12:00.889Z,150.03
2019-05-22T02:14:30.285Z,89.35
2019-05-22T02:16:59.912Z,151.20
2019-05-22T02:19:29.359Z,87.72
2019-05-22T02:22:00.143Z,144.02
2019-05-22T02:24:29.945Z,92.35
2019-05-22T02:29:29.319Z,85.53
2019-05-22T02:31:58.476Z,153.20
2019-05-22T02:34:28.297Z,87.50
2019-05-22T02:39:32.733Z,87.72
2019-05-22T02:42:06.399Z,130.20
2019-05-22T02:44:36.588Z,90.72
2019-05-22T02:47:19.048Z,111.47
2019-05-22T02:49:39.178Z,88.05
2019-05-22T02:52:10.154Z,101.95
2019-05-22T02:54:39.757Z,102.20
2019-05-22T02:57:10.992Z,92.15
2019-05-22T02:59:42.812Z,86.10
2019-05-22T03:02:16.115Z,135.00
2019-05-22T03:05:04.143Z,86.47
2019-05-22T03:07:35.782Z,104.00
2019-05-22T03:10:07.185Z,111.83
2019-05-22T03:12:36.432Z,85.83
2019-05-22T03:15:07.534Z,123.95
2019-05-22T03:17:38.676Z,85.55
2019-05-22T03:20:11.973Z,130.55
2019-05-22T03:22:47.802Z,84.90
2019-05-22T03:25:18.188Z,166.68
2019-05-22T03:27:50.096Z,84.47
2019-05-22T03:30:42.440Z,141.65
2019-05-22T03:33:19.535Z,147.13
2019-05-22T03:35:56.821Z,110.80
2019-05-22T03:38:26.229Z,131.82
2019-05-22T03:40:55.820Z,84.13
2019-05-22T03:43:27.604Z,121.10
2019-05-22T03:45:57.275Z,86.02
2019-05-22T03:48:30.880Z,121.05
2019-05-22T03:51:12.362Z,95.22
2019-05-22T03:53:43.850Z,91.28
2019-05-22T03:56:13.340Z,147.05
2019-05-22T03:58:42.585Z,90.17
2019-05-22T04:01:12.454Z,163.10
2019-05-22T04:03:41.666Z,94.80
2019-05-22T04:06:12.242Z,143.68
2019-05-22T04:08:41.696Z,85.75
2019-05-22T04:11:13.026Z,150.18
2019-05-22T04:13:42.179Z,90.62
2019-05-22T04:16:13.333Z,147.72
2019-05-22T04:18:43.705Z,91.42
2019-05-22T04:21:15.150Z,154.80
2019-05-22T04:23:44.662Z,86.20
2019-05-22T04:26:20.207Z,155.45
2019-05-22T04:29:06.900Z,98.60
2019-05-22T04:31:58.053Z,112.55
2019-05-22T04:34:28.092Z,113.03
2019-05-22T04:37:04.647Z,98.00
2019-05-22T04:39:37.811Z,100.22
2019-05-22T04:42:08.047Z,121.95
2019-05-22T04:44:40.369Z,90.90
2019-05-22T04:50:18.831Z,124.00
2019-05-22T04:52:49.522Z,145.75
2019-05-22T04:55:21.861Z,91.28
2019-05-22T04:57:51.539Z,133.07
2019-05-22T05:00:25.400Z,97.37
2019-05-22T05:02:54.719Z,124.15
2019-05-22T05:05:25.960Z,95.05
2019-05-22T05:07:56.654Z,128.07
2019-05-22T05:10:39.405Z,105.12
2019-05-22T05:13:07.777Z,95.10
2019-05-22T05:15:37.541Z,139.22
2019-05-22T05:18:06.852Z,92.80
2019-05-22T05:20:35.986Z,143.15
2019-05-22T05:23:05.187Z,104.53
2019-05-22T05:25:43.500Z,166.85
2019-05-22T05:28:13.429Z,128.55
2019-05-22T05:30:42.859Z,239.20
2019-05-22T05:33:20.172Z,101.20
2019-05-22T05:35:59.366Z,213.35
2019-05-22T05:38:38.936Z,126.90
2019-05-22T05:41:08.352Z,97.00
2019-05-22T05:43:37.616Z,145.80
2019-05-22T05:46:07.482Z,88.70
2019-05-22T05:48:43.426Z,171.45
2019-05-22T05:51:16.075Z,90.22
2019-05-22T05:54:22.621Z,161.55
2019-05-22T05:56:50.692Z,136.37
2019-05-22T05:59:26.646Z,101.58
2019-05-22T06:01:56.066Z,108.35
2019-05-22T06:04:34.875Z,90.30
2019-05-22T06:07:16.912Z,93.37
2019-05-22T06:09:48.433Z,167.93
2019-05-22T06:12:17.674Z,89.15
2019-05-22T06:14:47.278Z,151.63
2019-05-22T06:17:33.342Z,82.95
2019-05-22T06:20:08.991Z,88.27
2019-05-22T06:22:38.182Z,133.37
2019-05-22T06:25:08.220Z,87.17
2019-05-22T06:27:45.188Z,155.63
2019-05-22T06:30:21.624Z,87.72
2019-05-22T06:33:14.149Z,132.97
2019-05-22T06:35:44.487Z,153.90
2019-05-22T06:38:33.367Z,85.15
2019-05-22T06:41:02.859Z,87.33
2019-05-22T06:43:35.209Z,136.92
2019-05-22T06:46:09.834Z,96.55
2019-05-22T06:48:38.930Z,138.47
2019-05-22T06:51:19.073Z,90.92
2019-05-22T06:53:39.103Z,144.10
2019-05-22T06:56:08.238Z,94.10
2019-05-22T06:58:37.615Z,145.28
2019-05-22T07:01:10.276Z,94.85
2019-05-22T07:03:39.536Z,152.60
2019-05-22T07:06:09.212Z,102.92
2019-05-22T07:08:39.040Z,165.65
2019-05-22T07:11:09.508Z,93.85
2019-05-22T07:13:39.090Z,139.90
2019-05-22T07:16:08.219Z,92.10
2019-05-22T07:18:37.363Z,134.72
2019-05-22T07:21:07.918Z,91.15
2019-05-22T07:23:37.109Z,139.85
2019-05-22T07:26:06.236Z,91.42
2019-05-22T07:28:36.599Z,126.80
2019-05-22T07:31:07.760Z,94.83
2019-05-22T07:33:57.333Z,148.68
2019-05-22T07:36:27.515Z,94.45
2019-05-22T07:38:56.824Z,130.12
2019-05-22T07:41:26.319Z,92.80
2019-05-22T07:43:55.485Z,125.00
2019-05-22T07:46:24.727Z,92.50
2019-05-22T07:48:54.277Z,132.72
2019-05-22T07:51:24.362Z,89.65
2019-05-22T07:53:53.797Z,112.50
2019-05-22T07:56:23.534Z,90.72
2019-05-22T08:01:27.209Z,92.17
2019-05-22T08:03:57.798Z,133.03
2019-05-22T08:06:27.353Z,108.72
2019-05-22T08:08:57.143Z,145.02
2019-05-22T08:11:27.461Z,101.07
2019-05-22T08:13:57.784Z,143.65
2019-05-22T08:16:27.649Z,96.75
2019-05-22T08:18:56.886Z,132.67
2019-05-22T08:21:26.087Z,96.82
2019-05-22T08:23:55.671Z,135.78
2019-05-22T08:26:26.182Z,100.58
2019-05-22T08:28:58.379Z,139.65
2019-05-22T08:31:27.745Z,101.92
2019-05-22T08:33:56.994Z,138.35
2019-05-22T08:36:26.185Z,101.47
2019-05-22T08:38:56.653Z,130.57
2019-05-22T08:41:29.369Z,102.62
2019-05-22T08:44:15.057Z,139.92
2019-05-22T08:46:31.792Z,107.50
2019-05-22T08:49:01.434Z,164.47
2019-05-22T08:51:30.549Z,136.30
2019-05-22T08:53:59.728Z,246.97
2019-05-22T08:56:35.170Z,227.13
2019-05-22T08:59:18.888Z,255.47
2019-05-22T09:01:38.135Z,100.18
2019-05-22T09:04:08.060Z,179.87
2019-05-22T09:06:37.175Z,125.60
2019-05-22T09:09:07.162Z,259.30
2019-05-22T09:11:36.306Z,195.15
2019-05-22T09:14:05.498Z,227.97
2019-05-22T09:16:34.789Z,186.12
2019-05-22T09:19:04.371Z,236.87
2019-05-22T09:24:04.312Z,194.28
2019-05-22T09:26:33.902Z,148.00
2019-05-22T09:29:03.063Z,232.00
2019-05-22T09:31:32.466Z,183.93
2019-05-22T09:34:01.714Z,233.80
2019-05-22T09:36:31.692Z,176.40
2019-05-22T09:39:00.819Z,215.50
2019-05-22T09:41:29.988Z,195.35
2019-05-22T09:43:59.133Z,234.37
2019-05-22T09:46:28.261Z,218.42
2019-05-22T09:48:57.981Z,238.18
2019-05-22T09:51:27.447Z,224.90
2019-05-22T09:53:56.917Z,260.57
2019-05-22T09:56:26.687Z,230.87
2019-05-22T09:58:55.906Z,255.10
2019-05-22T10:01:25.144Z,233.15
2019-05-22T10:03:54.356Z,254.70
2019-05-22T10:06:23.539Z,234.62
2019-05-22T10:08:52.740Z,250.32
2019-05-22T10:11:22.456Z,250.68
2019-05-22T10:13:51.730Z,250.75
2019-05-22T10:16:21.024Z,247.65
2019-05-22T10:18:53.044Z,248.68
2019-05-22T10:21:22.312Z,254.63
2019-05-22T10:23:51.437Z,253.05
2019-05-22T10:26:21.288Z,247.75
2019-05-22T10:28:50.465Z,254.93
2019-05-22T10:31:21.747Z,257.85
2019-05-22T10:33:52.107Z,97.30
2019-05-22T10:36:21.807Z,96.45
2019-05-22T10:41:19.808Z,94.23
2019-05-22T10:43:49.395Z,91.50
2019-05-22T10:48:47.494Z,87.08
2019-05-22T10:51:16.635Z,110.25
2019-05-22T10:53:45.896Z,87.35
2019-05-22T10:56:15.067Z,127.85
2019-05-22T10:58:44.221Z,83.87
2019-05-22T11:01:13.885Z,123.65
2019-05-22T11:03:43.085Z,88.15
2019-05-22T11:06:12.621Z,136.30
2019-05-22T11:11:10.880Z,131.03
2019-05-22T11:16:09.917Z,136.35
2019-05-22T11:18:39.764Z,86.55
2019-05-22T11:21:09.366Z,161.07
2019-05-22T11:23:51.472Z,84.28
2019-05-22T11:26:09.818Z,135.93
2019-05-22T11:31:08.100Z,144.47
2019-05-22T11:33:37.255Z,85.70
2019-05-22T11:36:06.426Z,144.35
2019-05-22T11:38:35.816Z,88.82
2019-05-22T11:41:05.729Z,148.68
2019-05-22T11:43:34.917Z,85.17
2019-05-22T11:46:04.991Z,150.00
2019-05-22T11:48:34.514Z,85.03
2019-05-22T11:51:03.661Z,162.72
2019-05-22T11:53:32.775Z,89.10
2019-05-22T11:56:02.306Z,139.57
2019-05-22T12:01:00.379Z,130.72
2019-05-22T12:03:31.453Z,86.63
2019-05-22T12:06:00.646Z,140.50
2019-05-22T12:08:30.127Z,88.52
2019-05-22T12:15:58.453Z,124.90
2019-05-22T12:18:28.346Z,86.50
2019-05-22T12:20:57.469Z,120.72
2019-05-22T12:23:27.158Z,85.00
2019-05-22T12:25:56.285Z,130.22
2019-05-22T12:28:25.672Z,88.55
2019-05-22T12:30:56.404Z,85.55
2019-05-22T12:33:26.071Z,136.15
2019-05-22T12:35:55.649Z,85.77
2019-05-22T12:38:27.174Z,148.05
2019-05-22T12:40:57.661Z,84.47
2019-05-22T12:43:28.558Z,134.37
2019-05-22T12:45:57.815Z,86.25
2019-05-22T12:48:28.091Z,135.20
2019-05-22T12:50:58.079Z,85.10
2019-05-22T12:53:27.202Z,150.53
2019-05-22T12:55:56.667Z,89.30
2019-05-22T13:00:54.427Z,85.77
2019-05-22T13:03:24.354Z,133.93
2019-05-22T13:05:53.919Z,85.07
2019-05-22T13:08:23.893Z,134.85
2019-05-22T13:10:53.394Z,89.80
2019-05-22T13:15:52.415Z,100.67
2019-05-22T13:18:22.649Z,127.45
2019-05-22T13:20:52.906Z,90.20
2019-05-22T13:23:24.990Z,130.95
2019-05-22T13:25:54.818Z,91.12
2019-05-22T13:28:26.153Z,176.95
2019-05-22T13:30:56.324Z,96.75
2019-05-22T13:33:27.642Z,146.80
2019-05-22T13:35:57.574Z,93.87
2019-05-22T13:38:27.471Z,151.90
2019-05-22T13:40:57.201Z,93.15
2019-05-22T13:43:27.420Z,153.68
2019-05-22T13:45:56.990Z,93.30
2019-05-22T13:48:26.201Z,149.95
2019-05-22T13:50:56.654Z,94.87
2019-05-22T13:53:25.954Z,147.00
2019-05-22T13:55:55.819Z,98.22
2019-05-22T13:58:26.269Z,149.07
2019-05-22T14:00:55.481Z,101.22
2019-05-22T14:03:24.844Z,163.37
2019-05-22T14:05:54.730Z,98.87
2019-05-22T14:08:24.557Z,142.00
2019-05-22T14:10:53.840Z,98.62
2019-05-22T14:13:25.518Z,139.90
2019-05-22T14:15:57.330Z,99.28
2019-05-22T14:18:25.819Z,167.18
2019-05-22T14:20:54.964Z,99.47
2019-05-22T14:23:24.423Z,147.80
2019-05-22T14:28:22.635Z,146.35
2019-05-22T14:30:52.926Z,102.27
2019-05-22T14:33:22.342Z,141.95
2019-05-22T14:35:52.517Z,102.00
2019-05-22T14:38:21.876Z,136.40
2019-05-22T14:40:51.094Z,99.80
2019-05-22T14:43:20.291Z,128.12
2019-05-22T14:45:49.943Z,98.47
2019-05-22T14:48:19.195Z,131.12
2019-05-22T14:50:48.596Z,101.62
2019-05-22T14:53:18.173Z,127.95
2019-05-22T14:58:16.929Z,122.98
2019-05-22T15:00:46.583Z,105.03
2019-05-22T15:03:16.583Z,142.18
2019-05-22T15:05:45.963Z,118.05
2019-05-22T15:10:44.163Z,133.45
2019-05-22T15:13:13.793Z,214.78
2019-05-22T15:15:43.350Z,223.70
2019-05-22T15:20:42.748Z,256.55
2019-05-22T15:23:11.878Z,287.77
2019-05-22T15:25:41.089Z,261.43
2019-05-22T15:28:10.215Z,301.95
2019-05-22T15:30:39.775Z,262.88
2019-05-22T15:33:10.465Z,297.75
2019-05-22T15:35:40.026Z,260.68
2019-05-22T15:38:10.352Z,299.07
2019-05-22T15:40:40.254Z,260.02
2019-05-22T15:43:10.796Z,297.95
2019-05-22T15:45:40.174Z,254.30
2019-05-22T15:48:13.563Z,296.27
2019-05-22T15:50:44.740Z,261.27
2019-05-22T15:53:15.447Z,282.50
2019-05-22T15:55:46.395Z,254.05
2019-05-22T15:58:17.175Z,267.32
2019-05-22T16:00:47.388Z,257.62
2019-05-22T16:03:22.504Z,275.45
2019-05-22T16:05:52.525Z,292.27
2019-05-22T16:08:21.985Z,263.20
2019-05-22T16:10:52.171Z,281.50
2019-05-22T16:13:23.094Z,262.38
2019-05-22T16:15:54.518Z,280.75
2019-05-22T16:18:32.056Z,257.50
2019-05-22T16:21:02.545Z,309.10
2019-05-22T16:23:34.099Z,259.73
2019-05-22T16:26:06.227Z,294.30
2019-05-22T16:28:37.080Z,254.18
2019-05-22T16:31:09.928Z,284.48
2019-05-22T16:33:41.552Z,259.10
2019-05-22T16:36:12.100Z,272.80
2019-05-22T16:38:43.378Z,251.58
2019-05-22T16:41:13.037Z,269.10
2019-05-22T16:43:49.729Z,260.93
2019-05-22T16:46:16.592Z,267.10
2019-05-22T16:48:47.868Z,263.02
2019-05-22T16:51:17.732Z,261.52
2019-05-22T16:53:55.646Z,276.20
2019-05-22T16:56:26.264Z,252.53
2019-05-22T16:58:55.959Z,282.77
2019-05-22T17:01:27.199Z,242.53
2019-05-22T17:03:59.953Z,288.30
2019-05-22T17:06:30.237Z,256.40
2019-05-22T17:09:00.461Z,271.15
2019-05-22T17:11:30.338Z,255.90
2019-05-22T17:14:03.130Z,299.83
2019-05-22T17:16:37.316Z,259.45
2019-05-22T17:19:25.590Z,301.32
2019-05-22T17:21:39.462Z,259.23
2019-05-22T17:24:10.553Z,276.20
2019-05-22T17:26:39.962Z,252.62
2019-05-22T17:31:37.877Z,247.02
2019-05-22T17:34:08.996Z,285.43
2019-05-22T17:36:38.566Z,252.85
2019-05-22T17:39:09.636Z,284.10
2019-05-22T17:41:41.285Z,253.65
2019-05-22T17:44:12.061Z,273.38
2019-05-22T17:46:42.241Z,254.57
2019-05-22T17:49:11.429Z,280.40
2019-05-22T17:51:40.900Z,259.90
2019-05-22T17:56:39.531Z,252.75
2019-05-22T17:59:08.921Z,277.85
2019-05-22T18:01:38.411Z,259.40
2019-05-22T18:04:07.570Z,292.57
2019-05-22T18:06:36.686Z,254.15
2019-05-22T18:09:07.043Z,301.15
2019-05-22T18:11:36.799Z,252.65
2019-05-22T18:14:05.946Z,292.82
2019-05-22T18:16:35.109Z,253.60
2019-05-22T18:19:05.267Z,286.60
2019-05-22T18:21:35.652Z,261.65
2019-05-22T18:24:06.511Z,284.85
2019-05-22T18:26:36.017Z,250.35
2019-05-22T18:29:05.228Z,288.23
2019-05-22T18:31:34.805Z,292.87
2019-05-22T18:36:32.285Z,277.25
2019-05-22T18:39:01.425Z,283.65
2019-05-22T18:41:30.827Z,247.50
2019-05-22T18:44:00.087Z,248.97
2019-05-22T18:46:29.300Z,279.57
2019-05-22T18:48:58.426Z,250.60
2019-05-22T18:51:28.264Z,278.15
2019-05-22T18:53:57.399Z,237.80
2019-05-22T18:56:26.690Z,266.95
2019-05-22T18:58:56.225Z,284.65
2019-05-22T19:01:25.473Z,230.07
2019-05-22T19:03:54.586Z,282.37
2019-05-22T19:06:30.210Z,240.30
2019-05-22T19:08:54.803Z,302.00
2019-05-22T19:11:25.774Z,255.43
2019-05-22T19:13:55.142Z,304.00
2019-05-22T19:16:24.531Z,250.93
2019-05-22T19:18:53.748Z,298.50
2019-05-22T19:21:22.888Z,250.13
2019-05-22T19:23:52.108Z,294.87
2019-05-22T19:26:22.099Z,255.32
2019-05-22T19:28:51.301Z,290.48
2019-05-22T19:31:20.446Z,252.55
2019-05-22T19:33:49.640Z,304.43
2019-05-22T19:36:18.928Z,257.90
2019-05-22T19:38:48.325Z,286.02
2019-05-22T19:41:17.592Z,250.90
2019-05-22T19:43:46.899Z,291.57
2019-05-22T19:46:16.155Z,254.40
2019-05-22T19:48:45.307Z,280.98
2019-05-22T19:51:17.306Z,256.10
2019-05-22T19:53:47.772Z,280.35
2019-05-22T19:56:17.631Z,256.27
2019-05-22T19:58:47.024Z,274.55
2019-05-22T20:01:16.157Z,256.40
2019-05-22T20:03:45.282Z,279.85
2019-05-22T20:06:14.410Z,257.07
2019-05-22T20:08:45.013Z,297.77
2019-05-22T20:11:14.205Z,253.07
2019-05-22T20:13:43.489Z,287.77
2019-05-22T20:16:12.856Z,254.35
2019-05-22T20:18:42.717Z,288.15
2019-05-22T20:21:12.004Z,257.20
2019-05-22T20:23:41.406Z,285.95
2019-05-22T20:26:10.695Z,251.18
2019-05-22T20:28:39.880Z,281.87
2019-05-22T20:31:09.182Z,259.15
2019-05-22T20:33:38.297Z,277.50
2019-05-22T20:36:08.827Z,262.75
2019-05-22T20:38:38.419Z,282.55
2019-05-22T20:41:08.113Z,259.15
2019-05-22T20:48:36.900Z,257.07
2019-05-22T20:51:07.736Z,290.65
2019-05-22T20:53:52.841Z,255.32
2019-05-22T20:56:11.037Z,295.77
2019-05-22T20:58:40.754Z,248.80
2019-05-22T21:03:39.677Z,274.95
2019-05-22T21:06:10.811Z,247.85
2019-05-22T21:08:40.115Z,269.07
2019-05-22T21:11:09.470Z,254.28
2019-05-22T21:13:39.787Z,277.13
2019-05-22T21:16:09.410Z,250.80
2019-05-22T21:18:40.325Z,275.35
2019-05-22T21:21:09.442Z,250.95
2019-05-22T21:23:38.654Z,276.30
2019-05-22T21:26:08.513Z,257.35
2019-05-22T21:28:39.040Z,279.95
2019-05-22T21:31:08.173Z,251.55
2019-05-22T21:33:37.774Z,284.83
2019-05-22T21:36:09.095Z,248.05
2019-05-22T21:38:38.409Z,279.05
2019-05-22T21:41:08.026Z,255.03
2019-05-22T21:43:37.281Z,286.67
2019-05-22T21:46:06.794Z,256.45
2019-05-22T21:48:36.183Z,288.50
2019-05-22T21:51:05.369Z,260.23
2019-05-22T21:53:35.646Z,295.70
2019-05-22T21:56:06.333Z,248.53
2019-05-22T21:58:35.976Z,282.62
2019-05-22T22:01:13.457Z,254.72
2019-05-22T22:03:47.660Z,267.95
2019-05-22T22:06:17.417Z,269.90
2019-05-22T22:11:15.146Z,261.12
2019-05-22T22:13:44.441Z,259.73
2019-05-22T22:16:13.667Z,267.30
2019-05-22T22:18:43.048Z,263.87
2019-05-22T22:21:13.322Z,259.90
2019-05-22T22:23:44.608Z,267.25
2019-05-22T22:26:25.436Z,264.77
2019-05-22T22:28:44.503Z,264.15
2019-05-22T22:31:15.720Z,266.52
2019-05-22T22:33:47.553Z,261.62
2019-05-22T22:36:16.752Z,265.80
2019-05-22T22:38:46.357Z,256.15
2019-05-22T22:41:15.716Z,272.88
2019-05-22T22:43:46.571Z,253.00
2019-05-22T22:46:23.082Z,269.07
2019-05-22T22:48:54.018Z,251.22
2019-05-22T22:51:24.371Z,285.35
2019-05-22T22:53:53.565Z,247.48
2019-05-22T22:56:23.226Z,292.20
2019-05-22T22:58:52.949Z,247.10
2019-05-22T23:03:59.170Z,287.72
2019-05-22T23:06:28.335Z,251.25
2019-05-22T23:08:57.543Z,287.38
2019-05-22T23:11:28.379Z,254.93
2019-05-22T23:14:00.063Z,279.45
2019-05-22T23:16:29.627Z,245.78
2019-05-22T23:19:15.777Z,292.00
2019-05-22T23:21:45.359Z,289.42
2019-05-22T23:24:16.579Z,248.70
2019-05-22T23:26:46.018Z,293.27
2019-05-22T23:29:17.023Z,253.20
2019-05-22T23:31:46.414Z,281.47
2019-05-22T23:34:15.707Z,246.82
2019-05-22T23:36:45.195Z,284.37
2019-05-22T23:39:15.129Z,254.25
2019-05-22T23:41:45.949Z,274.92
2019-05-22T23:44:18.621Z,259.55
2019-05-22T23:46:47.808Z,291.45
2019-05-22T23:49:16.917Z,261.85
2019-05-22T23:51:46.181Z,283.95
2019-05-22T23:54:17.055Z,244.82
2019-05-22T23:56:46.513Z,283.62
2019-05-22T23:59:16.923Z,252.38
